Wilkes Barre Scranton International Airport
KAVP : now visible

Airfield :











YOU CAN JOIN US ON...

 
LOGIN :

Register | Disclaimer

   EN    FR    IT 

 









Legend :    VFR   Marginal VFR   IFR   Intensive IFR   Very Intensive IFR
Visi :
Ceiling :
>= 8 km
>= 3000ft
5 to 8 km
1000 to 3000 ft
1500m to 5 km
500 to 1000 ft
800 to 1500m
200 to 500 ft
< 800m
< 200 ft
Symbols :   Thunderstorms  Fog  Heavy snow  Heavy precipitations  Wind > 20 kt






- Airport Elevation : 962 ft
- IATA code : AVP


KAVP - Wilkes Barre Scranton International

CURRENT METAR :
  • 200354Z 22005KT 7SM OVC011 11/08 A3000 RMK AO2 SLP157 T01060078

EXPIRED METARs :
  • 200254Z 22005KT 8SM OVC012 11/08 A2999 RMK AO2 SLP155 T01060078 58002
  • 200154Z AUTO VRB04KT 8SM OVC013 11/07 A3001 RMK AO2 SLP161 T01060072
  • 200104Z AUTO VRB06KT 8SM OVC014 11/07 A3001 RMK AO2 T01060072
  • 200054Z AUTO 20005KT 9SM OVC015 11/07 A3002 RMK AO2 SLP165 T01060072
  • 192354Z AUTO VRB03KT 8SM OVC018 11/07 A2999 RMK AO2 RAB2259E35 SLP158 P0001 60001 T01060072 10139 20106 53002

TAF KAVP
Valid from the 20 at 03:00 until the 21 at 00:00 UTC


200250Z 2003/2024 21006KT P6SM SCT008 OVC013
FM200800 28008KT P6SM BKN020
FM200900 30005KT P6SM BKN035
KZNY FIR / North America



MET'MAP, your aeronautical weather chart ! - Copyright ORBIFLY December 2007 - Disclaimer

ORBIFLY MET'MAP TEAM :

Programming & Development : Alexandra Zaïnal
Original concept : Baudouin d'Aumeries
Technical & hardware support : Manuel Goepfert
Assistance : Marc-Olivier Méhu




SOURCES & CREDITS :

   NOAA       Earth
Advisory